Terminal Aerodrome Forecast
Issued by NWS

Current Version | Previous Version | Graphics & Text | Print | Product List | Glossary On
Versions: 1 2 3 4 5 6 7 8 9 10 11 12 13 14 15 16 17 18 19
000
FTUS41 KILN 132331
TAFLCK
TAF
KLCK 132331Z 1400/1424 33005KT P6SM SCT025 OVC035
     FM140900 VRB03KT P6SM SCT035
     FM141600 13004KT P6SM FEW035=

USA.gov is the U.S. government's official web portal to all federal, state and local government web resources and services.